Time;durP1;ratioP1;P1;durP2;ratioP2;P2;SDS_P1;SDS_P2;PMS_P1;PMS_P2;Temp;Humidity;BMP_temperature;BMP_pressure;BME280_temperature;BME280_humidity;BME280_pressure;Samples;Min_cycle;Max_cycle;Signal;HPM_P1;HPM_P2
2022/06/08 00:02:13;;;;;;;16.03;7.50;;;;;;;11.80;65.31;101401.59;5114757;28;20433;-69
2022/06/08 00:04:39;;;;;;;18.73;7.53;;;;;;;11.77;65.15;101401.88;5114831;28;20067;-69
2022/06/08 00:07:05;;;;;;;13.50;6.47;;;;;;;11.78;65.51;101414.28;5115030;28;20067;-69
2022/06/08 00:09:30;;;;;;;21.77;6.53;;;;;;;11.76;64.55;101408.22;5114961;28;20032;-68
2022/06/08 00:11:56;;;;;;;14.13;6.53;;;;;;;11.73;65.60;101400.53;5113152;28;20035;-70
2022/06/08 00:14:22;;;;;;;17.93;6.67;;;;;;;11.71;64.98;101397.19;5114636;28;20398;-69
2022/06/08 00:16:48;;;;;;;21.57;7.57;;;;;;;11.71;65.07;101405.19;5114565;28;20035;-70
2022/06/08 00:19:14;;;;;;;18.77;6.60;;;;;;;11.67;65.33;101403.81;5114081;28;20040;-69
2022/06/08 00:21:42;;;;;;;14.70;6.80;;;;;;;11.66;65.61;101402.97;5114795;28;20505;-69
2022/06/08 00:24:07;;;;;;;18.75;6.63;;;;;;;11.69;65.21;101407.16;5114798;28;20466;-70
2022/06/08 00:26:34;;;;;;;18.93;6.77;;;;;;;11.67;64.85;101412.66;5114467;28;20047;-70
2022/06/08 00:29:00;;;;;;;22.37;6.57;;;;;;;11.66;65.93;101410.16;5114496;28;20140;-69
2022/06/08 00:31:26;;;;;;;13.97;6.47;;;;;;;11.61;65.13;101404.44;5114434;28;20035;-68
2022/06/08 00:33:51;;;;;;;16.33;5.93;;;;;;;11.57;64.59;101400.41;5114393;28;20043;-69
2022/06/08 00:36:17;;;;;;;15.23;5.83;;;;;;;11.60;64.83;101397.44;5114420;28;20390;-68
2022/06/08 00:38:42;;;;;;;20.83;7.23;;;;;;;11.59;64.96;101401.09;5114437;28;20516;-70
2022/06/08 00:41:37;;;;;;;22.70;5.97;;;;;;;11.67;63.94;101414.50;5114143;28;20057;-70
2022/06/08 00:44:09;;;;;;;17.70;7.37;;;;;;;11.67;64.56;101410.00;5113935;28;20122;-68
2022/06/08 00:46:35;;;;;;;21.07;7.50;;;;;;;11.64;63.52;101404.13;5114003;28;20085;-70
2022/06/08 00:49:14;;;;;;;20.33;6.83;;;;;;;11.50;64.13;101381.47;5114123;28;20035;-69
2022/06/08 00:51:40;;;;;;;17.20;7.07;;;;;;;11.66;64.79;101410.16;5114291;28;20077;-69
2022/06/08 00:54:12;;;;;;;21.83;7.03;;;;;;;11.64;65.37;101404.13;5113926;28;20035;-70
2022/06/08 00:56:44;;;;;;;19.20;5.87;;;;;;;11.64;64.83;101404.97;5114361;28;20071;-69
2022/06/08 00:59:10;;;;;;;17.90;7.23;;;;;;;11.63;63.94;101402.47;5113861;28;20039;-69
2022/06/08 01:01:36;;;;;;;18.20;7.37;;;;;;;11.65;63.42;101401.31;5113801;28;20122;-69
2022/06/08 01:04:14;;;;;;;15.23;6.50;;;;;;;11.67;63.23;101399.31;5113643;28;20040;-69
2022/06/08 01:06:42;;;;;;;20.05;6.88;;;;;;;11.70;63.08;101400.84;5113404;28;20028;-68
2022/06/08 01:09:27;;;;;;;18.45;5.88;;;;;;;11.68;63.43;101389.50;5113604;28;20035;-69
2022/06/08 01:11:55;;;;;;;18.23;6.47;;;;;;;11.65;61.72;101373.78;5113461;28;20085;-69
2022/06/08 01:14:21;;;;;;;;;;;;;;;11.83;62.63;101395.97;5113871;28;20526;-68
2022/06/08 01:17:07;;;;;;;22.73;7.37;;;;;;;11.68;62.32;101370.81;5112040;28;20023;-69
2022/06/08 01:19:36;;;;;;;26.87;7.53;;;;;;;11.76;61.71;101386.88;5113027;28;20502;-69
2022/06/08 01:22:05;;;;;;;21.60;6.43;;;;;;;11.79;62.48;101395.44;5113390;27;20035;-69
2022/06/08 01:24:31;;;;;;;;;;;;;;;11.87;61.81;101394.69;5112828;28;20411;-68
2022/06/08 01:27:19;;;;;;;15.03;6.60;;;;;;;11.86;61.92;101398.34;5113403;28;19921;-69
2022/06/08 01:30:07;;;;;;;21.35;6.10;;;;;;;11.83;62.43;101395.13;5112807;28;20122;-70
2022/06/08 01:32:35;;;;;;;14.10;6.43;;;;;;;11.82;62.19;101398.78;5113301;28;20036;-69
2022/06/08 01:35:11;;;;;;;19.03;6.93;;;;;;;11.82;62.98;101398.78;5112914;28;20063;-69
2022/06/08 01:37:56;;;;;;;17.50;6.57;;;;;;;11.84;61.60;101394.97;5113038;28;20461;-69
2022/06/08 01:40:54;;;;;;;16.67;5.53;;;;;;;11.90;61.34;101389.03;5113163;28;20130;-69
2022/06/08 01:43:25;;;;;;;14.90;5.47;;;;;;;11.90;60.44;101383.69;5041563;28;20443;-69
2022/06/08 01:46:28;;;;;;;18.03;5.70;;;;;;;11.97;59.94;101390.06;5112881;28;20028;-69
2022/06/08 01:49:20;;;;;;;16.73;5.70;;;;;;;12.06;60.43;101389.13;5099134;28;20085;-70
2022/06/08 01:52:10;;;;;;;9.70;4.97;;;;;;;12.10;59.48;101390.47;5111695;28;20031;-68
2022/06/08 01:54:48;;;;;;;12.93;5.27;;;;;;;12.13;59.48;101385.81;5112801;28;20084;-69
2022/06/08 01:57:17;;;;;;;15.23;4.95;;;;;;;12.14;58.90;101383.00;5112712;28;20486;-70
2022/06/08 01:59:54;;;;;;;11.23;4.82;;;;;;;12.19;58.56;101387.88;5111218;28;20031;-70
2022/06/08 02:02:31;;;;;;;14.13;4.80;;;;;;;12.20;57.98;101379.72;5112671;28;20134;-68
2022/06/08 02:05:09;;;;;;;10.60;4.30;;;;;;;12.29;57.65;101393.94;5112718;28;20096;-67
2022/06/08 02:08:00;;;;;;;14.90;4.45;;;;;;;12.36;57.98;101394.97;5112684;28;20031;-68
2022/06/08 02:10:37;;;;;;;15.10;4.00;;;;;;;12.36;57.61;101392.31;5113401;28;20065;-71
2022/06/08 02:13:21;;;;;;;18.20;4.43;;;;;;;12.38;57.09;101377.78;5112497;28;20105;-69
2022/06/08 02:15:52;;;;;;;11.83;4.30;;;;;;;12.46;57.00;101394.88;5112306;28;20035;-68
2022/06/08 02:18:23;;;;;;;9.03;3.33;;;;;;;12.55;56.82;101396.59;5112837;28;20038;-70
2022/06/08 02:21:02;;;;;;;10.23;3.10;;;;;;;12.50;56.85;101378.38;5111350;28;20063;-70
2022/06/08 02:23:30;;;;;;;;;;;;;;;12.70;57.01;101401.16;5114978;28;20047;-69
2022/06/08 02:26:06;;;;;;;11.45;5.35;;;;;;;12.76;55.75;101396.19;5112971;28;19916;-70
2022/06/08 02:28:36;;;;;;;9.97;3.60;;;;;;;12.79;55.74;101390.50;5112617;28;20028;-69
2022/06/08 02:31:24;;;;;;;16.53;4.70;;;;;;;12.97;55.12;101393.88;5112312;28;20498;-69
2022/06/08 02:37:21;;;;;;;10.27;4.50;;;;;;;13.30;53.76;101394.84;5115214;28;20050;-69
2022/06/08 02:39:53;;;;;;;10.87;3.70;;;;;;;13.39;53.64;101393.03;5116679;28;20042;-69
2022/06/08 02:42:26;;;;;;;8.90;3.77;;;;;;;13.53;53.01;101395.03;5115138;28;20043;-68
2022/06/08 02:44:56;;;;;;;10.17;3.50;;;;;;;13.61;52.84;101392.38;5116249;27;20138;-69
2022/06/08 02:47:31;;;;;;;7.53;4.60;;;;;;;13.74;52.98;101400.72;5116558;28;20561;-68
2022/06/08 02:50:00;;;;;;;10.33;5.00;;;;;;;14.56;50.71;101388.88;5116617;28;20027;-68
2022/06/08 02:52:26;;;;;;;;;;;;;;;16.79;46.27;101394.84;5118052;28;20032;-69
2022/06/08 02:54:53;;;;;;;11.73;4.63;;;;;;;18.74;41.26;101391.56;5116493;28;19923;-68
2022/06/08 02:57:44;;;;;;;7.73;4.53;;;;;;;20.30;38.01;101390.34;5116043;27;20130;-70
2022/06/08 03:00:14;;;;;;;6.83;4.47;;;;;;;21.70;35.39;101391.38;5116061;28;20039;-68
2022/06/08 03:02:42;;;;;;;10.67;4.23;;;;;;;22.25;33.80;101388.78;5116240;28;20477;-68
2022/06/08 03:05:10;;;;;;;13.88;5.80;;;;;;;22.49;34.43;101385.19;5115985;28;20097;-69
2022/06/08 03:08:04;;;;;;;16.40;4.35;;;;;;;22.77;34.58;101394.69;5115839;28;20391;-70
2022/06/08 03:10:35;;;;;;;20.50;5.07;;;;;;;22.35;33.41;101394.56;5115784;28;20498;-69
2022/06/08 03:13:07;;;;;;;9.10;4.67;;;;;;;22.40;32.84;101386.56;5115940;28;20035;-69
2022/06/08 03:15:34;;;;;;;9.80;3.87;;;;;;;23.15;32.15;101384.41;5114347;28;20038;-69
2022/06/08 03:18:00;;;;;;;6.25;4.20;;;;;;;24.19;30.00;101384.84;5115515;28;20101;-70
2022/06/08 03:20:28;;;;;;;7.50;4.40;;;;;;;24.91;28.50;101389.94;5115604;28;20518;-70
2022/06/08 03:22:54;;;;;;;7.97;4.20;;;;;;;25.10;27.32;101382.41;5115632;28;20047;-69
2022/06/08 03:25:20;;;;;;;9.73;4.07;;;;;;;24.93;27.30;101382.34;5115769;28;20127;-69
2022/06/08 03:27:47;;;;;;;7.13;4.57;;;;;;;24.83;27.40;101388.41;5114101;28;20035;-69
2022/06/08 03:30:14;;;;;;;7.15;3.90;;;;;;;24.67;27.57;101381.00;5115352;28;20063;-69
2022/06/08 03:32:40;;;;;;;11.85;4.45;;;;;;;24.54;27.80;101375.81;5115260;28;20034;-69
2022/06/08 03:35:07;;;;;;;4.50;3.83;;;;;;;24.66;27.96;101372.00;5115501;28;20027;-69
2022/06/08 03:37:32;;;;;;;7.68;4.88;;;;;;;25.07;26.75;101381.00;5116365;28;20055;-68
2022/06/08 03:39:58;;;;;;;5.13;3.47;;;;;;;25.39;26.89;101359.50;5116804;28;20047;-69
2022/06/08 03:42:23;;;;;;;6.05;4.05;;;;;;;25.82;25.81;101378.00;5117869;28;20496;-67
2022/06/08 03:44:49;;;;;;;8.60;3.17;;;;;;;26.29;25.55;101388.50;5115219;28;20035;-70
2022/06/08 03:47:19;;;;;;;6.28;3.78;;;;;;;26.50;24.67;101382.28;5114345;28;20031;-69
2022/06/08 03:49:45;;;;;;;6.82;3.53;;;;;;;26.20;24.58;101360.81;5115407;28;20118;-68
2022/06/08 03:52:15;;;;;;;9.20;4.05;;;;;;;26.11;25.34;101378.72;5115190;28;20118;-66
2022/06/08 03:54:46;;;;;;;8.25;3.85;;;;;;;25.70;25.25;101376.41;5115005;28;20032;-68
2022/06/08 03:57:14;;;;;;;9.07;4.00;;;;;;;25.59;25.44;101381.69;5113751;28;20032;-70
2022/06/08 03:59:42;;;;;;;7.43;4.03;;;;;;;25.74;25.24;101381.16;5114690;28;20031;-70
2022/06/08 04:02:09;;;;;;;8.30;4.03;;;;;;;25.81;24.94;101372.78;5114991;28;20039;-69
2022/06/08 04:04:39;;;;;;;8.10;3.85;;;;;;;25.98;24.93;101378.22;5114876;28;20311;-69
2022/06/08 04:07:06;;;;;;;11.35;4.45;;;;;;;26.09;24.60;101380.88;5114965;28;20094;-71
2022/06/08 04:09:32;;;;;;;7.45;3.85;;;;;;;26.27;24.87;101381.63;5114854;28;20038;-69
2022/06/08 04:11:57;;;;;;;8.63;4.57;;;;;;;26.48;24.47;101378.16;5113259;28;20031;-69
2022/06/08 04:14:23;;;;;;;11.38;4.00;;;;;;;26.69;24.16;101391.00;5114389;28;20051;-70
2022/06/08 04:16:49;;;;;;;12.52;4.43;;;;;;;26.64;24.25;101380.00;5114557;28;20412;-71
2022/06/08 04:19:20;;;;;;;7.97;3.90;;;;;;;26.00;25.07;101385.06;5114236;28;20126;-70
2022/06/08 04:21:46;;;;;;;11.73;3.97;;;;;;;25.06;26.12;101376.63;5114459;28;20044;-70
2022/06/08 04:24:14;;;;;;;5.93;3.65;;;;;;;23.78;27.72;101375.72;5114671;28;20405;-73
2022/06/08 04:26:40;;;;;;;8.07;3.85;;;;;;;23.21;29.17;101371.78;5114241;28;20032;-70
2022/06/08 04:29:08;;;;;;;8.38;3.60;;;;;;;24.06;28.17;101371.47;5114245;28;20039;-69
2022/06/08 04:31:34;;;;;;;8.02;3.90;;;;;;;25.10;27.10;101366.06;5114645;28;20444;-71
2022/06/08 04:34:06;;;;;;;5.80;3.08;;;;;;;25.86;26.25;101370.13;5113792;28;20376;-70
2022/06/08 04:36:35;;;;;;;9.20;3.78;;;;;;;26.66;25.18;101379.75;5114297;28;20036;-71
2022/06/08 04:39:02;;;;;;;7.30;3.33;;;;;;;26.78;24.33;101370.31;5113890;28;20043;-70
2022/06/08 04:41:27;;;;;;;9.18;3.55;;;;;;;26.50;24.34;101365.06;5113547;28;20064;-71
2022/06/08 04:43:54;;;;;;;10.05;2.75;;;;;;;26.17;24.56;101369.50;5113918;28;20119;-71
2022/06/08 04:46:20;;;;;;;8.35;2.92;;;;;;;25.93;24.71;101366.16;5113903;28;20623;-72
2022/06/08 04:48:46;;;;;;;10.38;3.80;;;;;;;26.13;25.27;101368.38;5113884;28;20047;-70
2022/06/08 04:51:14;;;;;;;12.10;2.72;;;;;;;26.46;25.45;101381.13;5113753;28;20041;-68
2022/06/08 04:53:42;;;;;;;6.47;2.03;;;;;;;26.32;24.83;101379.00;5113511;28;20046;-71
2022/06/08 04:56:08;;;;;;;4.00;3.15;;;;;;;26.34;25.15;101377.69;5113623;28;20039;-66
2022/06/08 04:58:34;;;;;;;6.10;2.97;;;;;;;26.64;24.67;101380.00;5108923;28;20046;-67
2022/06/08 05:01:01;;;;;;;6.32;2.08;;;;;;;26.30;24.67;101370.22;5113584;28;20035;-62
2022/06/08 05:03:27;;;;;;;4.53;2.10;;;;;;;26.00;25.13;101359.69;5113539;28;20070;-66
2022/06/08 05:05:53;;;;;;;5.03;1.80;;;;;;;25.70;25.75;101365.50;5113260;28;20062;-63
2022/06/08 05:08:20;;;;;;;5.85;2.10;;;;;;;25.47;26.05;101374.66;5113428;28;20040;-64
2022/06/08 05:10:47;;;;;;;2.90;2.03;;;;;;;24.92;26.95;101376.06;5113143;28;20042;-67
2022/06/08 05:13:13;;;;;;;6.38;2.53;;;;;;;24.96;27.26;101355.44;5113453;28;20035;-64
2022/06/08 05:15:40;;;;;;;5.95;2.42;;;;;;;25.16;26.46;101376.00;5113308;28;20046;-63
2022/06/08 05:18:08;;;;;;;7.80;3.25;;;;;;;24.84;27.48;101367.44;5101666;28;20047;-64
2022/06/08 05:20:37;;;;;;;9.68;3.42;;;;;;;24.68;28.81;101379.94;5109132;28;20461;-66
2022/06/08 05:23:03;;;;;;;9.38;2.58;;;;;;;23.75;28.78;101378.91;5112746;28;20043;-66
2022/06/08 05:25:33;;;;;;;7.35;2.33;;;;;;;22.39;31.04;101378.66;5112593;28;20031;-63
2022/06/08 05:27:59;;;;;;;6.35;2.47;;;;;;;21.32;32.86;101380.59;5111145;28;20039;-67
2022/06/08 05:30:25;;;;;;;7.88;2.95;;;;;;;20.46;34.61;101363.88;5092262;28;20089;-65
2022/06/08 05:32:51;;;;;;;11.50;3.53;;;;;;;20.04;34.88;101374.16;5092446;28;20080;-65
2022/06/08 05:35:17;;;;;;;4.35;1.75;;;;;;;19.80;35.21;101371.03;5092364;28;20050;-65
2022/06/08 05:37:42;;;;;;;6.18;1.88;;;;;;;19.55;35.68;101359.19;5106259;28;20031;-66
2022/06/08 05:40:10;;;;;;;4.53;2.15;;;;;;;19.40;36.59;101370.19;5110623;28;20035;-63
2022/06/08 05:42:37;;;;;;;6.95;2.45;;;;;;;19.41;36.70;101374.53;5110214;27;20047;-66
2022/06/08 05:45:04;;;;;;;5.88;1.77;;;;;;;19.48;36.30;101374.53;5110358;28;20040;-64
2022/06/08 05:47:30;;;;;;;7.35;2.53;;;;;;;19.57;36.24;101364.38;5110411;28;20042;-62
2022/06/08 05:49:55;;;;;;;5.82;3.03;;;;;;;19.54;36.19;101356.69;5110238;28;20044;-63
2022/06/08 05:52:21;;;;;;;9.63;2.20;;;;;;;19.54;35.93;101364.81;5110958;28;20119;-63
2022/06/08 05:54:47;;;;;;;8.15;2.92;;;;;;;19.28;35.95;101316.97;5112023;28;20039;-64
2022/06/08 05:57:13;;;;;;;6.20;2.13;;;;;;;19.53;35.93;101365.81;5112972;28;20069;-66
2022/06/08 05:59:39;;;;;;;7.30;2.28;;;;;;;19.56;35.38;101373.53;5112448;28;20130;-62
2022/06/08 06:02:06;;;;;;;8.88;2.35;;;;;;;19.48;35.92;101364.56;5112732;28;20501;-61
2022/06/08 06:04:32;;;;;;;4.53;2.15;;;;;;;19.54;35.90;101364.81;5112255;28;20058;-71
2022/06/08 06:06:59;;;;;;;9.20;2.55;;;;;;;19.49;35.85;101366.22;5112026;28;20118;-67
2022/06/08 06:09:26;;;;;;;6.28;2.17;;;;;;;19.55;35.43;101355.66;5109057;28;20039;-63
2022/06/08 06:11:52;;;;;;;5.72;2.40;;;;;;;19.60;35.65;101351.28;5082685;28;20127;-68
2022/06/08 06:14:18;;;;;;;15.80;1.90;;;;;;;19.67;35.78;101359.41;5096561;28;20483;-65
2022/06/08 06:16:43;;;;;;;8.98;2.28;;;;;;;19.66;36.02;101360.44;5094237;28;20042;-67
2022/06/08 06:19:09;;;;;;;4.82;1.92;;;;;;;19.72;36.16;101359.63;5112120;28;20405;-63
2022/06/08 06:21:39;;;;;;;8.30;2.00;;;;;;;19.50;36.05;101315.72;5111298;28;20511;-65
2022/06/08 06:24:06;;;;;;;6.20;2.10;;;;;;;19.69;35.28;101360.88;5110959;28;20046;-64
2022/06/08 06:26:32;;;;;;;5.28;1.92;;;;;;;19.67;36.32;101354.03;5108586;28;20062;-64
2022/06/08 06:28:58;;;;;;;4.85;2.22;;;;;;;19.71;37.21;101350.69;5111854;28;20036;-68
2022/06/08 06:31:28;;;;;;;6.07;2.50;;;;;;;19.69;36.37;101341.97;5110438;28;20039;-65
2022/06/08 06:33:54;;;;;;;8.88;2.22;;;;;;;19.84;36.51;101355.25;5111579;28;20032;-70
2022/06/08 06:36:20;;;;;;;5.22;2.00;;;;;;;19.96;35.94;101350.88;5111803;28;20089;-66
2022/06/08 06:38:45;;;;;;;8.27;2.90;;;;;;;19.98;36.04;101339.84;5111697;28;20491;-63
2022/06/08 06:41:16;;;;;;;7.88;2.90;;;;;;;19.96;35.73;101348.19;5111528;28;20070;-65
2022/06/08 06:43:41;;;;;;;7.43;3.20;;;;;;;19.96;36.06;101331.13;5112481;28;20114;-62
2022/06/08 06:46:09;;;;;;;9.27;2.30;;;;;;;19.86;36.19;101323.44;5111888;28;20562;-62
2022/06/08 06:48:36;;;;;;;13.75;2.88;;;;;;;19.83;35.27;101334.66;5111763;28;20035;-64
2022/06/08 06:58:22;;;;;;;18.25;2.85;;;;;;;19.83;35.67;101325.72;5111638;28;20053;-63
2022/06/08 07:00:48;;;;;;;7.88;2.22;;;;;;;19.86;36.31;101311.78;5111873;28;20024;-64
2022/06/08 07:03:14;;;;;;;9.73;3.22;;;;;;;19.91;36.04;101318.22;5111221;28;20033;-60
2022/06/08 07:05:40;;;;;;;8.52;5.70;;;;;;;19.98;36.35;101321.75;5111243;28;20027;-63
2022/06/08 07:08:06;;;;;;;6.28;2.53;;;;;;;19.90;35.44;101313.84;5112149;28;20034;-62
2022/06/08 07:10:33;;;;;;;5.65;2.08;;;;;;;19.96;35.80;101317.59;5111560;28;20659;-62
2022/06/08 07:12:59;;;;;;;9.45;2.75;;;;;;;19.96;35.74;101304.09;5109986;28;20131;-62
2022/06/08 07:15:26;;;;;;;16.70;2.95;;;;;;;19.99;36.38;101303.66;5110048;28;20027;-64
2022/06/08 07:17:52;;;;;;;6.28;2.08;;;;;;;20.06;35.52;101308.00;5110924;28;20031;-62
2022/06/08 07:20:20;;;;;;;14.25;2.85;;;;;;;20.16;36.52;101309.44;5111254;28;20056;-64
2022/06/08 07:22:47;;;;;;;8.90;2.47;;;;;;;20.27;36.05;101300.69;5111848;28;20036;-63
2022/06/08 07:25:14;;;;;;;6.35;2.03;;;;;;;20.35;35.76;101301.25;5113623;28;20478;-63
2022/06/08 07:27:41;;;;;;;6.95;2.17;;;;;;;20.35;35.14;101301.25;5115138;28;20044;-62
2022/06/08 07:30:08;;;;;;;9.70;2.60;;;;;;;20.31;35.72;101307.31;5113705;28;20130;-63
2022/06/08 07:32:35;;;;;;;8.18;2.47;;;;;;;20.32;35.39;101296.28;5114229;28;20034;-65
2022/06/08 07:35:02;;;;;;;10.88;3.53;;;;;;;20.38;35.66;101300.84;5114069;28;20042;-61
2022/06/08 07:37:29;;;;;;;;;;;;;;;20.46;34.84;101305.19;5115154;28;20035;-65
2022/06/08 07:39:54;;;;;;;9.13;1.85;;;;;;;20.46;35.26;101299.78;5115293;28;19915;-71
2022/06/08 07:42:21;;;;;;;7.05;2.30;;;;;;;20.38;34.83;101283.78;5115085;28;20123;-67
2022/06/08 07:44:47;;;;;;;3.15;1.55;;;;;;;20.49;34.36;101299.34;5097575;28;20115;-66
2022/06/08 07:47:13;;;;;;;7.70;2.28;;;;;;;20.56;35.04;101293.94;5115638;28;20034;-68
2022/06/08 07:49:45;;;;;;;10.82;2.20;;;;;;;20.65;34.82;101307.00;5115452;28;20486;-68
2022/06/08 07:52:19;;;;;;;3.28;1.90;;;;;;;20.76;35.37;101299.22;5115479;28;20575;-68
2022/06/08 07:54:46;;;;;;;5.47;1.80;;;;;;;20.90;34.18;101306.25;5115268;28;20059;-67
2022/06/08 07:57:18;;;;;;;3.97;2.13;;;;;;;20.89;34.13;101294.59;5115061;28;20390;-69
2022/06/08 07:59:44;;;;;;;7.03;1.90;;;;;;;21.01;34.26;101292.00;5115497;28;20035;-67
2022/06/08 08:02:11;;;;;;;7.93;2.25;;;;;;;21.08;33.37;101281.94;5115248;28;20043;-67
2022/06/08 08:04:38;;;;;;;5.35;1.73;;;;;;;21.18;33.48;101290.44;5116266;28;20114;-67
2022/06/08 08:07:05;;;;;;;8.77;1.80;;;;;;;21.09;33.67;101280.06;5113880;28;20036;-65
2022/06/08 08:09:33;;;;;;;9.48;2.13;;;;;;;21.22;34.14;101285.41;5113892;28;20063;-66
2022/06/08 08:12:00;;;;;;;;;;;;;;;21.40;33.63;101284.69;5115079;28;20427;-65
2022/06/08 08:14:26;;;;;;;3.65;2.33;;;;;;;21.57;33.47;101288.47;5114788;28;20034;-63
2022/06/08 08:16:53;;;;;;;9.77;2.42;;;;;;;21.67;33.20;101282.53;5114713;28;20034;-68
2022/06/08 08:19:25;;;;;;;6.25;2.30;;;;;;;21.80;33.40;101279.72;5114872;28;20059;-65
2022/06/08 08:21:57;;;;;;;10.60;2.50;;;;;;;21.77;32.71;101280.16;5114464;28;20059;-66
2022/06/08 08:24:23;;;;;;;4.93;2.35;;;;;;;21.79;32.97;101278.88;5114336;28;20482;-65
2022/06/08 08:26:50;;;;;;;7.25;2.50;;;;;;;21.82;33.51;101277.59;5114766;28;20031;-69
2022/06/08 08:29:17;;;;;;;8.98;2.60;;;;;;;21.86;33.66;101271.50;5115335;28;20174;-69
2022/06/08 08:31:44;;;;;;;7.80;2.15;;;;;;;21.95;32.82;101277.44;5114499;28;20161;-68
2022/06/08 08:34:09;;;;;;;6.43;2.53;;;;;;;22.07;32.57;101275.69;5113903;27;20114;-70
2022/06/08 08:36:35;;;;;;;9.43;2.80;;;;;;;22.17;32.19;101280.59;5114119;28;20406;-67
2022/06/08 08:39:01;;;;;;;3.80;2.05;;;;;;;22.12;32.30;101278.56;5113471;28;20084;-64
2022/06/08 08:44:36;;;;;;;14.88;3.22;;;;;;;22.20;31.52;101266.56;5115699;28;20047;-70
2022/06/08 08:47:21;;;;;;;10.70;4.50;;;;;;;22.13;32.03;101257.69;5114127;28;20054;-63
2022/06/08 08:50:00;;;;;;;9.55;2.75;;;;;;;22.00;32.36;101266.78;5113838;28;20032;-63
2022/06/08 08:52:38;;;;;;;7.20;2.67;;;;;;;22.11;32.77;101265.22;5113943;28;20032;-69
2022/06/08 08:55:13;;;;;;;;;;;;;;;22.21;32.10;101262.78;5114536;28;20067;-64
2022/06/08 08:57:51;;;;;;;9.60;2.30;;;;;;;21.97;32.07;101267.19;5113712;28;19923;-65
2022/06/08 09:00:20;;;;;;;15.90;2.15;;;;;;;22.00;32.74;101264.06;5113947;27;20035;-63
2022/06/08 09:05:32;;;;;;;9.90;3.58;;;;;;;21.86;32.88;101268.78;5113573;28;20075;-64
2022/06/08 09:07:58;;;;;;;10.68;3.65;;;;;;;21.70;32.94;101268.56;5113436;28;20058;-66
2022/06/08 09:10:26;;;;;;;10.02;2.15;;;;;;;21.53;32.99;101262.88;5113247;28;20054;-62
2022/06/08 09:12:52;;;;;;;3.40;2.00;;;;;;;21.41;32.99;101259.25;5112216;28;20035;-67
2022/06/08 09:15:51;;;;;;;4.35;1.98;;;;;;;21.43;33.35;101257.13;5113441;28;20261;-64
2022/06/08 09:18:18;;;;;;;9.00;2.05;;;;;;;21.41;33.62;101254.66;5113155;28;20035;-63
2022/06/08 09:20:46;;;;;;;3.63;1.75;;;;;;;21.45;33.79;101255.03;5112974;28;20080;-65
2022/06/08 09:23:32;;;;;;;6.65;2.20;;;;;;;21.54;33.63;101259.09;5113137;27;20087;-63
2022/06/08 09:26:23;;;;;;;7.93;2.05;;;;;;;21.57;33.98;101253.25;5113215;28;20519;-64
2022/06/08 09:29:02;;;;;;;8.30;1.58;;;;;;;21.55;33.95;101255.34;5113183;28;20035;-66
2022/06/08 09:31:34;;;;;;;7.70;2.28;;;;;;;21.50;34.41;101242.47;5113808;28;20038;-62
2022/06/08 09:34:19;;;;;;;5.07;1.98;;;;;;;21.57;34.13;101248.66;5112944;28;20063;-63
2022/06/08 09:36:46;;;;;;;4.55;2.00;;;;;;;21.50;33.82;101255.19;5111932;28;20482;-63
2022/06/08 09:39:15;;;;;;;5.85;1.40;;;;;;;21.45;34.30;101239.59;5112842;28;20035;-62
2022/06/08 09:41:50;;;;;;;5.60;1.77;;;;;;;21.42;34.44;101241.94;5112959;28;20040;-63
2022/06/08 09:44:25;;;;;;;4.97;2.10;;;;;;;21.39;33.86;101239.63;5112370;28;20050;-63
2022/06/08 09:53:04;;;;;;;6.72;1.92;;;;;;;21.57;33.55;101228.84;5112585;28;20053;-64
2022/06/08 09:55:55;;;;;;;4.63;1.77;;;;;;;21.74;33.28;101229.09;5112582;28;20036;-63
2022/06/08 09:58:31;;;;;;;10.63;3.78;;;;;;;21.79;33.67;101221.94;5112374;28;20042;-66
2022/06/08 10:01:23;;;;;;;3.58;1.73;;;;;;;21.83;33.86;101217.72;5112894;28;20502;-63
2022/06/08 10:04:12;;;;;;;1.98;1.20;;;;;;;21.76;33.62;101219.69;5112587;28;20039;-63
2022/06/08 10:07:00;;;;;;;10.63;2.40;;;;;;;21.71;33.95;101213.28;5112474;28;20032;-66
2022/06/08 10:09:46;;;;;;;9.98;1.92;;;;;;;21.68;34.36;101206.41;5110937;28;20035;-62
2022/06/08 10:12:22;;;;;;;8.00;3.22;;;;;;;21.67;34.78;101210.16;5112310;28;20061;-64
2022/06/08 10:14:51;;;;;;;5.63;2.35;;;;;;;21.69;34.40;101202.69;5112072;28;20040;-64
2022/06/08 10:17:25;;;;;;;7.50;2.38;;;;;;;21.61;33.73;101202.94;5112593;28;20517;-65
2022/06/08 10:20:01;;;;;;;6.22;2.15;;;;;;;21.45;34.17;101200.84;5112154;28;20047;-66
2022/06/08 10:22:37;;;;;;;4.55;2.00;;;;;;;21.47;34.90;101199.56;5112424;28;20047;-63
2022/06/08 10:25:14;;;;;;;11.13;2.55;;;;;;;21.57;35.33;101210.69;5112344;28;20067;-63
2022/06/08 10:27:46;;;;;;;13.53;2.33;;;;;;;21.53;34.99;101217.63;5112227;28;20039;-63
2022/06/08 10:30:24;;;;;;;10.65;2.28;;;;;;;21.51;34.69;101210.78;5112426;28;20077;-63
2022/06/08 10:33:11;;;;;;;6.32;2.15;;;;;;;21.41;34.96;101205.06;5112276;28;20533;-66
2022/06/08 10:35:42;;;;;;;3.75;2.17;;;;;;;21.28;34.96;101193.28;5112196;28;20040;-64
2022/06/08 10:38:19;;;;;;;8.52;2.65;;;;;;;21.27;34.99;101197.03;5112531;28;20126;-64
2022/06/08 10:40:53;;;;;;;3.38;2.05;;;;;;;21.22;34.90;101190.59;5112443;28;20122;-63
2022/06/08 10:43:32;;;;;;;11.85;2.13;;;;;;;20.99;34.58;101164.13;5112447;28;20039;-63
2022/06/08 10:46:25;;;;;;;5.50;2.50;;;;;;;21.01;35.17;101159.31;5112032;28;20050;-63
2022/06/08 10:48:51;;;;;;;5.82;3.33;;;;;;;21.16;35.35;101175.25;5112003;28;20501;-64
2022/06/08 10:51:18;;;;;;;8.13;3.03;;;;;;;21.31;35.83;101178.44;5110783;28;20032;-64
2022/06/08 10:56:46;;;;;;;8.60;2.70;;;;;;;21.54;35.75;101185.94;5114315;28;20036;-64
2022/06/08 10:59:15;;;;;;;4.75;2.80;;;;;;;21.49;35.84;101169.53;5116191;27;20070;-63
2022/06/08 11:01:50;;;;;;;5.95;2.33;;;;;;;21.57;35.58;101175.47;5116252;28;20119;-65
2022/06/08 11:04:35;;;;;;;7.43;2.65;;;;;;;21.69;35.83;101175.56;5114818;28;20490;-62
2022/06/08 11:07:17;;;;;;;10.10;3.30;;;;;;;21.87;36.17;101172.84;5115929;28;20092;-66
2022/06/08 11:09:57;;;;;;;5.43;2.45;;;;;;;22.14;35.31;101172.53;5115984;28;20039;-65
2022/06/08 11:12:32;;;;;;;10.45;2.83;;;;;;;22.42;34.32;101175.47;5115581;28;20394;-64
2022/06/08 11:15:11;;;;;;;6.47;3.05;;;;;;;22.52;34.23;101169.47;5115740;28;20039;-64
2022/06/08 11:17:45;;;;;;;;;;;;;;;22.68;33.64;101176.16;5116733;28;20031;-66
2022/06/08 11:20:27;;;;;;;7.90;2.17;;;;;;;22.55;33.71;101169.88;5115665;28;19919;-65
2022/06/08 11:23:03;;;;;;;6.45;2.33;;;;;;;22.40;33.92;101166.75;5115525;28;20092;-64
2022/06/08 11:25:46;;;;;;;10.68;2.80;;;;;;;22.27;33.82;101177.81;5115313;28;20039;-64
2022/06/08 11:28:43;;;;;;;5.05;2.30;;;;;;;22.26;34.72;101176.13;5115678;28;20027;-65
2022/06/08 11:31:29;;;;;;;4.80;2.35;;;;;;;22.05;35.24;101166.59;5115830;28;20511;-66
2022/06/08 11:34:19;;;;;;;4.07;2.40;;;;;;;21.78;36.55;101154.41;5115209;28;20534;-64
2022/06/08 11:36:50;;;;;;;8.10;2.25;;;;;;;21.56;36.58;101173.00;5115871;28;20039;-63
2022/06/08 11:39:38;;;;;;;11.07;2.40;;;;;;;21.52;36.63;101166.38;5115801;28;20043;-65
2022/06/08 11:42:06;;;;;;;;;;;;;;;21.59;38.06;101164.41;5115871;28;20058;-66
2022/06/08 11:44:34;;;;;;;9.00;2.92;;;;;;;21.46;39.68;101138.28;5115251;28;19915;-63
2022/06/08 11:47:09;;;;;;;11.50;3.42;;;;;;;21.63;40.51;101150.16;5115476;28;20043;-63
2022/06/08 11:49:38;;;;;;;13.63;4.18;;;;;;;21.66;39.27;101159.72;5115647;28;20019;-63
2022/06/08 11:52:38;;;;;;;7.78;3.85;;;;;;;21.65;39.34;101147.22;5115677;28;20028;-62
2022/06/08 11:55:09;;;;;;;10.13;2.75;;;;;;;21.56;38.39;101144.00;5071523;28;20035;-65
2022/06/08 11:57:39;;;;;;;9.63;3.30;;;;;;;21.53;38.19;101139.03;5115794;28;20035;-66
2022/06/08 12:00:19;;;;;;;18.95;3.65;;;;;;;21.52;39.00;101137.38;5115683;27;20108;-63
2022/06/08 12:02:48;;;;;;;15.95;3.33;;;;;;;21.25;38.65;101082.66;5115610;28;20041;-64
2022/06/08 12:05:20;;;;;;;7.38;2.10;;;;;;;21.47;36.84;101125.56;5115438;28;20039;-65
2022/06/08 12:07:55;;;;;;;8.32;2.78;;;;;;;21.40;36.99;101122.94;5114204;28;20055;-65
2022/06/08 12:10:25;;;;;;;13.88;2.75;;;;;;;21.39;37.21;101120.41;5113993;28;20042;-63